Providence, Rhode Island
Traffic Map
Current Weather Conditions
Providence, Rhode Island
Broken Clouds
Broken Clouds
70°
Feels Like: 70°
Wind Chill: 70° Ceiling: 9000
Heat Index: 70° Visibility: 10mi
Dew Point: 50° Wind: 9mph
Humidity: 49% Direction: 340° (NNW)
Pressure: 29.95in Gusts: 0mph
Raw Report DataKPVD 290051Z 34008KT 10SM FEW075 BKN090 21/10 A2995 RMK AO2 SLP140 T02110100
Traffic Incident Summary
Active as of:
Severity:
Category:
InformationThere was an issue retrieving the traffic information for this location. Please try a different location or try again shortly.
Advertisements
Track Severe Weather on mobile